.
WxDataArchive / Data Records for 2007-02-26
2007-02-25 February 2007 2007-02-27

Data Records for Monday, 26 February 2007

Time	Temp	Chill	HIndex	Humid	Dewpt	 Wind 	HiWind	WindDir	Rain 	Barom 
-----	----	-----	------	-----	-----	------	------	-------	-----	----- 
00:00	33.2	28.5	33.2	77	26.8	5	12	248	0.00	29.595 
00:05	33.2	33.2	33.2	78	27.1	3	11	270	0.00	29.592 
00:10	33.1	29.3	33.1	78	27.0	4	7	248	0.00	29.593 
00:15	33.1	29.3	33.1	78	27.0	4	9	248	0.00	29.594 
00:20	32.9	32.9	32.9	79	27.1	3	7	248	0.00	29.595 
00:25	32.9	32.9	32.9	79	27.1	3	7	248	0.00	29.597 
00:30	32.8	29.0	32.8	79	27.0	4	9	248	0.00	29.600 
00:35	32.8	32.8	32.8	80	27.3	3	6	248	0.00	29.603 
00:40	32.7	32.7	32.7	80	27.2	2	7	248	0.00	29.606 
00:45	32.7	32.7	32.7	80	27.2	3	7	248	0.00	29.603 
00:50	32.7	32.7	32.7	80	27.2	3	7	248	0.00	29.602 
00:55	32.7	32.7	32.7	80	27.2	2	6	248	0.00	29.604 
01:00	32.7	28.9	32.7	80	27.2	4	7	248	0.00	29.606 
01:05	32.7	28.9	32.7	80	27.2	4	9	248	0.00	29.606 
01:10	32.7	27.9	32.7	79	26.9	5	12	248	0.00	29.606 
01:15	32.7	27.9	32.7	78	26.6	5	12	270	0.00	29.608 
01:20	32.8	28.0	32.8	78	26.7	5	11	270	0.00	29.608 
01:25	32.8	32.8	32.8	78	26.7	3	6	248	0.00	29.609 
01:30	32.8	29.0	32.8	78	26.7	4	12	270	0.00	29.609 
01:35	32.8	32.8	32.8	78	26.7	3	9	248	0.00	29.608 
01:40	32.8	29.0	32.8	78	26.7	4	7	248	0.00	29.609 
01:45	32.8	32.8	32.8	78	26.7	3	6	248	0.00	29.610 
01:50	32.7	32.7	32.7	78	26.6	2	6	248	0.00	29.610 
01:55	32.7	32.7	32.7	78	26.6	3	7	248	0.00	29.610 
02:00	32.7	32.7	32.7	78	26.6	3	10	248	0.00	29.611 
02:05	32.7	32.7	32.7	78	26.6	2	7	248	0.00	29.610 
02:10	32.7	32.7	32.7	78	26.6	3	7	248	0.00	29.612 
02:15	32.7	32.7	32.7	78	26.6	3	6	248	0.00	29.612 
02:20	32.7	28.9	32.7	78	26.6	4	9	270	0.00	29.611 
02:25	32.7	28.9	32.7	79	26.9	4	9	248	0.00	29.611 
02:30	32.7	32.7	32.7	79	26.9	3	9	248	0.00	29.611 
02:35	32.7	32.7	32.7	79	26.9	3	8	248	0.00	29.612 
02:40	32.7	28.9	32.7	79	26.9	4	7	248	0.00	29.612 
02:45	32.5	32.5	32.5	79	26.7	3	7	248	0.00	29.612 
02:50	32.5	32.5	32.5	79	26.7	3	10	270	0.00	29.612 
02:55	32.5	32.5	32.5	79	26.7	3	7	248	0.00	29.612 
03:00	32.5	32.5	32.5	79	26.7	2	5	248	0.00	29.611 
03:05	32.5	32.5	32.5	79	26.7	3	10	248	0.00	29.611 
03:10	32.5	32.5	32.5	80	27.0	2	5	248	0.00	29.611 
03:15	32.5	28.7	32.5	79	26.7	4	7	248	0.00	29.612 
03:20	32.4	32.4	32.4	79	26.6	3	10	270	0.00	29.612 
03:25	32.4	32.4	32.4	80	26.9	3	6	248	0.00	29.612 
03:30	32.4	32.4	32.4	80	26.9	3	7	248	0.00	29.610 
03:35	32.4	32.4	32.4	80	26.9	3	6	248	0.00	29.610 
03:40	32.2	28.3	32.2	81	27.0	4	9	248	0.00	29.611 
03:45	32.2	32.2	32.2	81	27.0	3	6	248	0.00	29.611 
03:50	32.2	32.2	32.2	81	27.0	2	7	248	0.00	29.611 
03:55	32.2	32.2	32.2	81	27.0	3	9	248	0.00	29.610 
04:00	32.2	32.2	32.2	80	26.7	3	6	248	0.00	29.610 
04:05	32.2	32.2	32.2	80	26.7	3	9	248	0.00	29.611 
04:10	32.2	32.2	32.2	80	26.7	3	8	248	0.00	29.613 
04:15	32.2	32.2	32.2	80	26.7	3	9	248	0.00	29.613 
04:20	32.2	32.2	32.2	80	26.7	3	7	248	0.00	29.614 
04:25	32.2	28.3	32.2	80	26.7	4	10	248	0.00	29.615 
04:30	32.2	28.3	32.2	80	26.7	4	9	248	0.00	29.615 
04:35	32.2	28.3	32.2	80	26.7	4	11	248	0.00	29.616 
04:40	32.1	28.2	32.1	81	26.9	4	9	248	0.00	29.618 
04:45	32.1	32.1	32.1	81	26.9	3	7	248	0.00	29.618 
04:50	32.1	32.1	32.1	82	27.2	3	9	248	0.00	29.619 
04:55	31.9	31.9	31.9	82	27.0	3	6	248	0.00	29.623 
05:00	31.9	28.0	31.9	82	27.0	4	11	248	0.00	29.622 
05:05	31.9	31.9	31.9	82	27.0	3	7	248	0.00	29.627 
05:10	31.9	28.0	31.9	82	27.0	4	9	248	0.00	29.629 
05:15	31.9	31.9	31.9	83	27.3	3	7	248	0.00	29.631 
05:20	31.9	28.0	31.9	83	27.3	4	12	248	0.00	29.632 
05:25	31.9	31.9	31.9	83	27.3	3	9	248	0.00	29.631 
05:30	31.8	31.8	31.8	83	27.2	3	9	248	0.00	29.631 
05:35	31.9	31.9	31.9	83	27.3	3	6	248	0.00	29.631 
05:40	31.9	31.9	31.9	83	27.3	3	7	248	0.00	29.633 
05:45	31.9	28.0	31.9	82	27.0	4	10	248	0.00	29.635 
05:50	31.9	28.0	31.9	82	27.0	4	11	270	0.00	29.634 
05:55	31.9	31.9	31.9	82	27.0	3	6	270	0.00	29.633 
06:00	31.9	31.9	31.9	82	27.0	3	5	248	0.00	29.633 
06:05	31.9	28.0	31.9	82	27.0	4	10	248	0.00	29.637 
06:10	31.9	31.9	31.9	82	27.0	3	5	248	0.00	29.640 
06:15	31.9	31.9	31.9	82	27.0	3	9	248	0.00	29.640 
06:20	31.9	31.9	31.9	82	27.0	3	8	248	0.00	29.645 
06:25	31.9	31.9	31.9	82	27.0	3	7	248	0.00	29.643 
06:30	31.9	28.0	31.9	82	27.0	4	9	248	0.00	29.644 
06:35	31.8	27.8	31.8	82	26.9	4	9	248	0.00	29.645 
06:40	31.9	28.0	31.9	82	27.0	4	11	248	0.00	29.646 
06:45	31.8	31.8	31.8	82	26.9	3	7	270	0.00	29.647 
06:50	31.8	27.8	31.8	81	26.6	4	9	270	0.00	29.648 
06:55	31.8	27.8	31.8	82	26.9	4	10	248	0.00	29.648 
07:00	31.8	31.8	31.8	82	26.9	3	9	248	0.00	29.648 
07:05	31.8	31.8	31.8	82	26.9	3	9	248	0.00	29.649 
07:10	31.8	26.8	31.8	81	26.6	5	12	248	0.00	29.649 
07:15	31.8	27.8	31.8	81	26.6	4	10	248	0.00	29.653 
07:20	31.8	31.8	31.8	81	26.6	3	10	270	0.00	29.653 
07:25	31.8	27.8	31.8	81	26.6	4	10	248	0.00	29.656 
07:30	31.8	31.8	31.8	81	26.6	3	9	248	0.00	29.662 
07:35	31.8	27.8	31.8	81	26.6	4	7	248	0.00	29.663 
07:40	31.8	31.8	31.8	82	26.9	3	6	248	0.00	29.664 
07:45	31.6	27.6	31.6	82	26.7	4	11	248	0.00	29.665 
07:50	31.6	26.6	31.6	82	26.7	5	12	248	0.00	29.666 
07:55	31.8	27.8	31.8	82	26.9	4	9	248	0.00	29.666 
08:00	31.8	27.8	31.8	82	26.9	4	7	248	0.00	29.668 
08:05	31.8	27.8	31.8	82	26.9	4	9	248	0.00	29.671 
08:10	31.8	27.8	31.8	81	26.6	4	10	248	0.00	29.675 
08:15	31.8	27.8	31.8	81	26.6	4	8	248	0.00	29.672 
08:20	31.8	27.8	31.8	81	26.6	4	10	270	0.00	29.673 
08:25	31.9	28.0	31.9	81	26.7	4	9	270	0.00	29.674 
08:30	31.9	28.0	31.9	81	26.7	4	10	248	0.00	29.677 
08:35	31.9	28.0	31.9	81	26.7	4	10	270	0.00	29.678 
08:40	31.9	28.0	31.9	81	26.7	4	10	248	0.00	29.679 
08:45	31.9	27.0	31.9	81	26.7	5	12	248	0.00	29.680 
08:50	31.9	28.0	31.9	81	26.7	4	7	248	0.00	29.680 
08:55	31.9	27.0	31.9	81	26.7	5	14	248	0.00	29.681 
09:00	31.9	28.0	31.9	81	26.7	4	11	270	0.00	29.681 
09:05	31.9	31.9	31.9	81	26.7	3	8	248	0.00	29.683 
09:10	31.9	28.0	31.9	81	26.7	4	9	248	0.00	29.683 
09:15	31.9	28.0	31.9	81	26.7	4	9	248	0.00	29.683 
09:20	31.9	28.0	31.9	81	26.7	4	12	270	0.00	29.684 
09:25	31.9	28.0	31.9	82	27.0	4	10	270	0.00	29.683 
09:30	31.8	26.0	31.8	82	26.9	6	15	248	0.00	29.684 
09:35	31.9	27.0	31.9	82	27.0	5	10	270	0.00	29.682 
09:40	31.9	27.0	31.9	81	26.7	5	11	270	0.00	29.682 
09:45	32.1	32.1	32.1	81	26.9	3	9	248	0.00	29.682 
09:50	32.2	32.2	32.2	81	27.0	3	10	248	0.00	29.682 
09:55	32.2	32.2	32.2	81	27.0	3	7	248	0.00	29.682 
10:00	32.4	32.4	32.4	81	27.2	3	6	248	0.00	29.682 
10:05	32.5	32.5	32.5	81	27.3	3	9	248	0.00	29.683 
10:10	32.5	27.7	32.5	80	27.0	5	12	248	0.00	29.687 
10:15	32.5	27.7	32.5	81	27.3	5	11	270	0.00	29.694 
10:20	32.5	27.7	32.5	80	27.0	5	13	270	0.00	29.693 
10:25	32.4	26.7	32.4	80	26.9	6	13	270	0.00	29.693 
10:30	32.5	28.7	32.5	80	27.0	4	11	248	0.00	29.695 
10:35	32.5	27.7	32.5	80	27.0	5	15	248	0.00	29.695 
10:40	32.5	27.7	32.5	79	26.7	5	14	270	0.00	29.696 
10:45	32.7	28.9	32.7	80	27.2	4	9	248	0.00	29.696 
10:50	32.7	28.9	32.7	79	26.9	4	10	270	0.00	29.696 
10:55	32.7	27.9	32.7	79	26.9	5	14	270	0.00	29.696 
11:00	32.7	27.9	32.7	79	26.9	5	10	270	0.00	29.696 
11:05	32.8	29.0	32.8	79	27.0	4	13	248	0.00	29.696 
11:10	32.8	29.0	32.8	79	27.0	4	11	248	0.00	29.696 
11:15	32.9	32.9	32.9	79	27.1	3	7	248	0.00	29.695 
11:20	32.9	29.1	32.9	78	26.8	4	12	270	0.00	29.695 
11:25	32.9	29.1	32.9	78	26.8	4	9	248	0.00	29.695 
11:30	33.1	33.1	33.1	78	27.0	3	9	248	0.00	29.695 
11:35	33.1	33.1	33.1	78	27.0	3	11	270	0.00	29.695 
11:40	33.1	33.1	33.1	77	26.7	3	10	248	0.00	29.695 
11:45	33.2	33.2	33.2	77	26.8	3	6	248	0.00	29.695 
11:50	33.2	29.5	33.2	77	26.8	4	10	248	0.00	29.695 
11:55	33.2	29.5	33.2	77	26.8	4	12	248	0.00	29.696 
12:00	33.2	33.2	33.2	77	26.8	3	10	248	0.00	29.697 
12:05	33.4	33.4	33.4	77	27.0	3	11	248	0.00	29.697 
12:10	33.4	33.4	33.4	76	26.7	3	7	270	0.01	29.697 
12:15	33.4	33.4	33.4	77	27.0	1	4	248	0.00	29.699 
12:20	33.4	33.4	33.4	77	27.0	3	7	248	0.00	29.701 
12:25	33.4	33.4	33.4	77	27.0	3	7	248	0.00	29.702 
12:30	33.4	33.4	33.4	77	27.0	2	7	248	0.00	29.702 
12:35	33.4	33.4	33.4	77	27.0	2	6	248	0.00	29.702 
12:40	33.4	33.4	33.4	77	27.0	3	7	270	0.00	29.708 
12:45	33.2	29.5	33.2	77	26.8	4	10	270	0.00	29.708 
12:50	33.1	33.1	33.1	77	26.7	3	10	270	0.00	29.710 
12:55	33.2	33.2	33.2	77	26.8	2	6	248	0.00	29.711 
13:00	33.1	29.3	33.1	77	26.7	4	9	248	0.00	29.711 
13:05	33.1	29.3	33.1	77	26.7	4	9	248	0.00	29.711 
13:10	33.2	33.2	33.2	77	26.8	3	10	248	0.00	29.712 
13:15	33.2	33.2	33.2	77	26.8	3	11	248	0.00	29.712 
13:20	33.2	33.2	33.2	77	26.8	3	11	248	0.00	29.712 
13:25	33.2	33.2	33.2	77	26.8	3	7	270	0.00	29.712 
13:30	33.2	33.2	33.2	77	26.8	3	6	248	0.00	29.712 
13:35	33.1	29.3	33.1	77	26.7	4	10	270	0.00	29.712 
13:40	32.9	29.1	32.9	78	26.8	4	10	270	0.00	29.712 
13:45	32.9	29.1	32.9	77	26.5	4	8	248	0.00	29.713 
13:50	32.9	29.1	32.9	78	26.8	4	7	270	0.00	29.715 
13:55	32.9	29.1	32.9	78	26.8	4	7	270	0.00	29.716 
14:00	32.8	29.0	32.8	78	26.7	4	11	248	0.00	29.718 
14:05	32.8	32.8	32.8	78	26.7	3	7	270	0.00	29.719 
14:10	32.8	32.8	32.8	78	26.7	3	7	248	0.00	29.719 
14:15	32.7	28.9	32.7	78	26.6	4	9	270	0.00	29.720 
14:20	32.8	32.8	32.8	78	26.7	3	7	248	0.00	29.721 
14:25	32.8	32.8	32.8	77	26.4	3	8	248	0.00	29.719 
14:30	32.8	32.8	32.8	78	26.7	2	6	248	0.00	29.719 
14:35	32.8	32.8	32.8	78	26.7	3	6	270	0.00	29.720 
14:40	32.8	32.8	32.8	77	26.4	3	10	248	0.00	29.722 
14:45	32.8	32.8	32.8	77	26.4	3	8	270	0.00	29.726 
14:50	32.8	32.8	32.8	77	26.4	2	5	270	0.00	29.726 
14:55	32.8	32.8	32.8	77	26.4	3	6	248	0.00	29.727 
15:00	32.8	32.8	32.8	76	26.1	3	7	248	0.00	29.728 
15:05	32.9	32.9	32.9	77	26.5	3	9	270	0.00	29.730 
15:10	32.9	32.9	32.9	76	26.2	3	6	270	0.00	29.731 
15:15	32.9	32.9	32.9	76	26.2	2	5	248	0.00	29.733 
15:20	32.9	32.9	32.9	76	26.2	2	6	248	0.00	29.735 
15:25	32.9	32.9	32.9	76	26.2	3	9	248	0.00	29.737 
15:30	32.9	32.9	32.9	76	26.2	3	6	248	0.00	29.738 
15:35	32.9	32.9	32.9	75	25.9	3	7	248	0.00	29.737 
15:40	32.8	32.8	32.8	75	25.8	3	8	248	0.00	29.738 
15:45	32.8	29.0	32.8	75	25.8	4	8	270	0.00	29.738 
15:50	32.8	32.8	32.8	76	26.1	3	9	248	0.00	29.739 
15:55	32.8	29.0	32.8	75	25.8	4	10	270	0.00	29.740 
16:00	32.7	28.9	32.7	75	25.7	4	13	270	0.00	29.741 
16:05	32.7	32.7	32.7	76	26.0	3	12	248	0.00	29.742 
16:10	32.7	27.9	32.7	76	26.0	5	11	270	0.00	29.743 
16:15	32.7	32.7	32.7	76	26.0	3	11	248	0.00	29.745 
16:20	32.7	32.7	32.7	76	26.0	2	5	248	0.00	29.745 
16:25	32.7	32.7	32.7	77	26.3	2	5	248	0.00	29.745 
16:30	32.7	32.7	32.7	77	26.3	2	5	248	0.00	29.747 
16:35	32.7	32.7	32.7	77	26.3	2	5	270	0.00	29.747 
16:40	32.7	32.7	32.7	77	26.3	3	5	248	0.00	29.750 
16:45	32.7	32.7	32.7	77	26.3	2	4	248	0.00	29.752 
16:50	32.5	32.5	32.5	78	26.4	2	5	248	0.00	29.755 
16:55	32.5	32.5	32.5	79	26.7	1	4	248	0.00	29.757 
17:00	32.5	32.5	32.5	79	26.7	1	3	248	0.00	29.759 
17:05	32.4	32.4	32.4	80	26.9	2	5	248	0.00	29.760 
17:10	32.2	32.2	32.2	80	26.7	2	7	270	0.00	29.761 
17:15	32.1	32.1	32.1	81	26.9	2	6	248	0.00	29.763 
17:20	32.1	32.1	32.1	81	26.9	2	6	248	0.00	29.764 
17:25	31.9	31.9	31.9	82	27.0	2	6	248	0.00	29.767 
17:30	31.9	31.9	31.9	83	27.3	2	4	248	0.00	29.774 
17:35	31.8	31.8	31.8	83	27.2	1	4	248	0.00	29.775 
17:40	31.8	31.8	31.8	84	27.5	2	7	248	0.00	29.776 
17:45	31.6	31.6	31.6	84	27.3	2	6	248	0.00	29.777 
17:50	31.6	31.6	31.6	84	27.3	3	7	248	0.00	29.777 
17:55	31.5	27.5	31.5	83	26.9	4	9	248	0.00	29.780 
18:00	31.5	31.5	31.5	82	26.7	2	7	248	0.00	29.786 
18:05	31.5	31.5	31.5	82	26.7	2	6	248	0.00	29.788 
18:10	31.5	31.5	31.5	82	26.7	3	8	248	0.00	29.790 
18:15	31.5	31.5	31.5	82	26.7	3	10	248	0.00	29.792 
18:20	31.5	31.5	31.5	83	26.9	2	9	248	0.00	29.793 
18:25	31.3	31.3	31.3	83	26.7	2	5	248	0.00	29.794 
18:30	31.3	31.3	31.3	84	27.0	2	5	248	0.00	29.800 
18:35	31.2	31.2	31.2	84	26.9	2	6	248	0.00	29.802 
18:40	31.2	31.2	31.2	84	26.9	3	7	248	0.00	29.805 
18:45	31.0	31.0	31.0	85	27.0	2	6	248	0.00	29.807 
18:50	31.0	31.0	31.0	86	27.3	2	5	248	0.00	29.809 
18:55	31.0	31.0	31.0	86	27.3	1	4	248	0.00	29.810 
19:00	31.0	31.0	31.0	87	27.6	1	3	248	0.00	29.810 
19:05	30.9	30.9	30.9	87	27.5	1	3	248	0.00	29.811 
19:10	30.9	30.9	30.9	88	27.8	1	3	248	0.00	29.812 
19:15	30.9	30.9	30.9	88	27.8	1	5	248	0.00	29.814 
19:20	30.9	30.9	30.9	87	27.5	3	6	248	0.00	29.815 
19:25	30.9	30.9	30.9	87	27.5	1	4	248	0.00	29.816 
19:30	30.9	30.9	30.9	87	27.5	3	9	248	0.00	29.816 
19:35	30.7	30.7	30.7	87	27.3	2	6	248	0.00	29.815 
19:40	30.7	30.7	30.7	88	27.6	1	5	248	0.00	29.815 
19:45	30.7	30.7	30.7	88	27.6	1	2	248	0.00	29.815 
19:50	30.7	30.7	30.7	88	27.6	2	4	248	0.00	29.816 
19:55	30.7	30.7	30.7	88	27.6	2	5	248	0.00	29.814 
20:00	30.6	30.6	30.6	88	27.5	2	7	248	0.00	29.817 
20:05	30.6	30.6	30.6	88	27.5	3	6	248	0.00	29.819 
20:10	30.4	30.4	30.4	88	27.3	3	6	248	0.00	29.820 
20:15	30.4	30.4	30.4	88	27.3	1	4	225	0.00	29.823 
20:20	30.4	30.4	30.4	88	27.3	1	5	225	0.00	29.824 
20:25	30.4	30.4	30.4	88	27.3	2	6	248	0.00	29.825 
20:30	30.4	30.4	30.4	88	27.3	2	6	248	0.00	29.826 
20:35	30.4	30.4	30.4	88	27.3	2	4	248	0.00	29.826 
20:40	30.4	30.4	30.4	88	27.3	2	7	248	0.00	29.826 
20:45	30.3	30.3	30.3	87	26.9	2	5	248	0.00	29.827 
20:50	30.3	30.3	30.3	86	26.6	2	6	248	0.00	29.827 
20:55	30.3	30.3	30.3	85	26.3	2	5	248	0.00	29.828 
21:00	30.3	30.3	30.3	84	26.1	2	5	248	0.00	29.827 
21:05	30.4	30.4	30.4	84	26.2	2	6	248	0.00	29.828 
21:10	30.4	30.4	30.4	84	26.2	1	5	248	0.00	29.828 
21:15	30.4	30.4	30.4	83	25.9	2	6	248	0.00	29.830 
21:20	30.4	30.4	30.4	83	25.9	2	4	248	0.00	29.833 
21:25	30.4	30.4	30.4	83	25.9	1	4	248	0.00	29.835 
21:30	30.4	30.4	30.4	83	25.9	1	4	248	0.00	29.839 
21:35	30.4	30.4	30.4	83	25.9	3	6	248	0.00	29.839 
21:40	30.6	30.6	30.6	83	26.1	1	3	248	0.00	29.840 
21:45	30.4	30.4	30.4	83	25.9	1	5	248	0.00	29.841 
21:50	30.4	30.4	30.4	83	25.9	2	4	248	0.00	29.841 
21:55	30.6	30.6	30.6	82	25.8	1	4	248	0.00	29.841 
22:00	30.6	30.6	30.6	82	25.8	1	6	248	0.00	29.842 
22:05	30.4	30.4	30.4	81	25.3	2	5	248	0.00	29.842 
22:10	30.4	30.4	30.4	84	26.2	2	6	248	0.00	29.842 
22:15	30.4	30.4	30.4	80	25.0	2	5	248	0.00	29.842 
22:20	30.4	30.4	30.4	79	24.7	2	6	248	0.00	29.842 
22:25	30.4	30.4	30.4	79	24.7	2	5	270	0.00	29.844 
22:30	30.6	30.6	30.6	79	24.9	2	5	248	0.00	29.843 
22:35	30.4	30.4	30.4	79	24.7	2	6	248	0.00	29.843 
22:40	30.4	30.4	30.4	78	24.4	3	7	248	0.00	29.843 
22:45	30.4	30.4	30.4	79	24.7	2	4	270	0.00	29.844 
22:50	30.4	30.4	30.4	79	24.7	2	4	248	0.00	29.843 
22:55	30.4	30.4	30.4	78	24.4	2	5	248	0.00	29.843 
23:00	30.4	30.4	30.4	79	24.7	1	3	248	0.00	29.844 
23:05	30.4	30.4	30.4	79	24.7	3	7	248	0.00	29.844 
23:10	30.4	30.4	30.4	79	24.7	3	10	248	0.00	29.843 
23:15	30.4	30.4	30.4	79	24.7	2	9	248	0.00	29.842 
23:20	30.4	30.4	30.4	79	24.7	1	4	248	0.00	29.842 
23:25	30.3	30.3	30.3	79	24.6	2	6	270	0.00	29.845 
23:30	30.3	30.3	30.3	79	24.6	2	6	248	0.00	29.847 
23:35	30.3	30.3	30.3	79	24.6	1	4	248	0.00	29.845 
23:40	30.3	30.3	30.3	79	24.6	1	5	248	0.00	29.846 
23:45	30.3	30.3	30.3	79	24.6	1	3	248	0.00	29.847 
23:50	30.1	30.1	30.1	79	24.4	2	6	248	0.00	29.848 
23:55	30.1	30.1	30.1	79	24.4	1	3	248	0.00	29.848 

CoCoRaHS
IN-AL-39
A2 Web Hosting
Creative Commons License
GoDaddy
Look for:

loaded 2017-12-12 01:58:31 • last modified 2010-11-18 10:43:29
Privacy PolicyDisclaimer
• wx.awcolley.com is powered by PmWiki v.2002016 •
• all content (unless otherwise noted) © 2017 A W Colley